Time;durP1;ratioP1;P1;durP2;ratioP2;P2;SDS_P1;SDS_P2;PMS_P1;PMS_P2;Temp;Humidity;BMP_temperature;BMP_pressure;BME280_temperature;BME280_humidity;BME280_pressure;Samples;Min_cycle;Max_cycle;Signal;HPM_P1;HPM_P2
2022/01/28 00:01:01;;;;;;;23.30;11.37;;;;;;;-2.53;100.00;100963.22;1693605;84;21040;-73
2022/01/28 00:03:22;;;;;;;27.33;13.00;;;;;;;-2.57;100.00;100959.78;1685227;84;21056;-74
2022/01/28 00:05:49;;;;;;;24.70;11.70;;;;;;;-2.50;100.00;100951.91;1676014;84;21047;-74
2022/01/28 00:08:18;;;;;;;30.67;13.17;;;;;;;-2.46;100.00;100953.66;1676295;85;21545;-74
2022/01/28 00:10:47;;;;;;;28.33;12.73;;;;;;;-2.49;100.00;100948.16;1686407;84;21093;-73
2022/01/28 00:13:21;;;;;;;29.50;13.17;;;;;;;-2.43;100.00;100942.37;1669408;86;21142;-73
2022/01/28 00:15:54;;;;;;;30.13;12.87;;;;;;;-2.43;100.00;100946.16;1681543;84;21631;-73
2022/01/28 00:39:49;;;;;;;28.07;12.90;;;;;;;-2.38;100.00;100916.80;1686250;84;21087;-73
2022/01/28 00:42:17;;;;;;;26.77;13.20;;;;;;;-2.47;100.00;100919.20;1672917;84;21180;-74
2022/01/28 00:44:44;;;;;;;28.67;13.20;;;;;;;-2.42;100.00;100917.58;1677205;84;21122;-74
2022/01/28 00:47:11;;;;;;;33.57;15.00;;;;;;;-2.40;100.00;100910.05;1674624;84;21061;-73
2022/01/28 00:49:38;;;;;;;30.27;13.27;;;;;;;-2.38;100.00;100907.98;1689342;84;21110;-73
2022/01/28 00:52:07;;;;;;;38.33;16.10;;;;;;;-2.37;100.00;100892.44;1688241;84;21020;-73
2022/01/28 00:54:34;;;;;;;31.97;14.80;;;;;;;-2.28;100.00;100892.16;1680717;84;21136;-73
2022/01/28 00:57:01;;;;;;;27.23;13.17;;;;;;;-2.34;100.00;100888.71;1695986;84;21066;-73
2022/01/28 00:59:29;;;;;;;33.90;14.67;;;;;;;-2.43;100.00;100885.23;1697857;84;21067;-73
2022/01/28 01:01:56;;;;;;;32.77;15.67;;;;;;;-2.37;100.00;100884.87;1678141;84;21079;-73
2022/01/28 01:04:24;;;;;;;33.60;15.13;;;;;;;-2.27;100.00;100877.48;1677995;85;21533;-73
2022/01/28 01:06:52;;;;;;;31.40;15.47;;;;;;;-2.28;100.00;100871.98;1680958;84;21075;-73
2022/01/28 01:09:19;;;;;;;33.60;15.67;;;;;;;-2.23;100.00;100870.39;1680954;84;21066;-73
2022/01/28 01:11:46;;;;;;;32.40;14.70;;;;;;;-2.22;100.00;100864.93;1682600;85;21172;-73
2022/01/28 01:14:13;;;;;;;39.93;17.27;;;;;;;-2.24;100.00;100853.98;1691288;84;21040;-73
2022/01/28 01:21:39;;;;;;;34.40;15.50;;;;;;;-2.30;100.00;100848.42;1690166;84;21541;-73
2022/01/28 01:24:11;;;;;;;32.27;15.17;;;;;;;-2.29;100.00;100842.96;1683222;84;21115;-74
2022/01/28 01:26:40;;;;;;;32.50;15.37;;;;;;;-2.28;100.00;100843.41;1691528;84;21020;-73
2022/01/28 01:29:12;;;;;;;33.47;15.67;;;;;;;-2.35;100.00;100832.41;1682578;85;21029;-74
2022/01/28 01:31:41;;;;;;;33.63;15.37;;;;;;;-2.48;100.00;100830.10;1653000;85;21095;-74
2022/01/28 01:34:14;;;;;;;33.73;14.67;;;;;;;-2.47;100.00;100835.59;1692256;84;21575;-73
2022/01/28 01:36:39;;;;;;;32.40;14.23;;;;;;;-2.39;100.00;100828.53;1691000;84;21522;-73
2022/01/28 01:39:08;;;;;;;35.27;15.77;;;;;;;-2.41;100.00;100826.02;1691567;84;21012;-74
2022/01/28 01:41:44;;;;;;;35.40;15.77;;;;;;;-2.39;100.00;100825.62;1693273;84;21094;-74
2022/01/28 01:52:02;;;;;;;36.07;16.37;;;;;;;-2.34;100.00;100818.12;1616570;87;21063;-73
2022/01/28 01:54:33;;;;;;;35.63;16.63;;;;;;;-2.32;100.00;100821.51;1654775;86;21073;-74
2022/01/28 01:57:00;;;;;;;34.93;15.33;;;;;;;-2.28;100.00;100827.86;1669544;84;21032;-74
2022/01/28 01:59:27;;;;;;;37.23;16.30;;;;;;;-2.27;100.00;100820.75;1691671;84;21052;-73
2022/01/28 02:01:56;;;;;;;35.07;15.23;;;;;;;-2.27;100.00;100822.01;1692295;84;21099;-74
2022/01/28 02:04:23;;;;;;;31.87;15.40;;;;;;;-2.23;100.00;100822.88;1693580;84;21094;-73
2022/01/28 02:06:53;;;;;;;33.20;15.63;;;;;;;-2.25;100.00;100825.39;1698726;84;21039;-74
2022/01/28 02:09:20;;;;;;;35.43;16.20;;;;;;;-2.19;100.00;100824.61;1697038;84;21545;-73
2022/01/28 02:11:47;;;;;;;35.10;15.33;;;;;;;-2.20;100.00;100834.28;1683300;84;21064;-73
2022/01/28 02:14:14;;;;;;;38.73;16.63;;;;;;;-2.18;100.00;100828.84;1681286;84;21037;-73
2022/01/28 02:16:41;;;;;;;37.40;15.80;;;;;;;-2.14;100.00;100825.53;1681494;84;21052;-74
2022/01/28 02:19:08;;;;;;;35.13;16.07;;;;;;;-2.14;100.00;100824.27;1678324;84;21023;-74
2022/01/28 02:21:43;;;;;;;37.67;17.10;;;;;;;-2.18;100.00;100817.49;1685141;84;21096;-73
2022/01/28 02:24:09;;;;;;;36.47;15.27;;;;;;;-2.16;100.00;100825.08;1687180;84;21068;-73
2022/01/28 02:26:37;;;;;;;38.73;16.47;;;;;;;-2.24;100.00;100816.15;1670822;85;21097;-73
2022/01/28 02:29:13;;;;;;;35.57;15.23;;;;;;;-2.23;100.00;100817.44;1678290;84;21083;-73
2022/01/28 02:31:34;;;;;;;33.07;15.90;;;;;;;-2.20;100.00;100809.48;1697568;84;21104;-74
2022/01/28 02:34:03;;;;;;;33.47;16.23;;;;;;;-2.24;100.00;100806.91;1691931;84;21063;-74
2022/01/28 02:36:30;;;;;;;40.60;16.80;;;;;;;-2.18;100.00;100805.30;1689475;84;21102;-73
2022/01/28 02:39:01;;;;;;;34.50;15.37;;;;;;;-2.15;100.00;100810.37;1685605;84;21104;-73
2022/01/28 02:41:33;;;;;;;37.23;16.93;;;;;;;-2.20;100.00;100805.70;1679838;84;21078;-74
2022/01/28 02:46:27;;;;;;;38.40;16.10;;;;;;;-2.09;100.00;100792.40;1685807;84;21823;-74
2022/01/28 02:49:01;;;;;;;38.20;16.60;;;;;;;-2.10;100.00;100786.91;1684807;84;21114;-74
2022/01/28 02:51:23;;;;;;;37.05;16.15;;;;;;;-2.08;100.00;100782.73;1680060;84;21532;-74
2022/01/28 02:54:00;;;;;;;36.80;16.20;;;;;;;-2.00;100.00;100778.20;1683392;84;21042;-73
2022/01/28 02:56:34;;;;;;;34.38;15.20;;;;;;;-2.03;100.00;100776.08;1678774;84;21025;-73
2022/01/28 02:58:53;;;;;;;40.27;16.60;;;;;;;-2.08;100.00;100766.75;1692078;84;21072;-74
2022/01/28 03:01:20;;;;;;;36.50;15.90;;;;;;;-2.00;100.00;100770.20;1678182;84;21097;-73
2022/01/28 03:03:50;;;;;;;38.90;16.73;;;;;;;-2.04;100.00;100764.27;1674536;84;21055;-73
2022/01/28 03:06:19;;;;;;;32.73;14.68;;;;;;;-1.96;100.00;100762.27;1675871;84;21038;-73
2022/01/28 03:08:56;;;;;;;37.48;16.77;;;;;;;-1.95;100.00;100766.05;1685563;84;21129;-73
2022/01/28 03:16:56;;;;;;;33.17;14.70;;;;;;;-1.90;100.00;100766.13;1691512;84;21461;-74
2022/01/28 03:19:19;;;;;;;35.15;16.02;;;;;;;-1.96;100.00;100763.11;1685515;84;21545;-74
2022/01/28 03:21:53;;;;;;;33.53;14.95;;;;;;;-1.88;100.00;100766.56;1671372;85;21073;-73
2022/01/28 03:24:13;;;;;;;35.60;16.43;;;;;;;-1.86;100.00;100763.64;1682679;84;21056;-74
2022/01/28 03:26:40;;;;;;;37.10;15.50;;;;;;;-1.75;100.00;100761.22;1694788;84;21512;-73
2022/01/28 03:29:07;;;;;;;37.77;17.60;;;;;;;-1.70;100.00;100761.30;1694195;84;21071;-73
2022/01/28 03:31:34;;;;;;;33.58;16.02;;;;;;;-1.71;100.00;100752.02;1702600;84;21062;-73
2022/01/28 03:34:01;;;;;;;33.92;14.40;;;;;;;-1.70;100.00;100752.03;1699047;84;21079;-73
2022/01/28 03:36:28;;;;;;;33.35;14.33;;;;;;;-1.77;100.00;100749.00;1688742;84;21053;-73
2022/01/28 03:38:55;;;;;;;31.27;14.25;;;;;;;-1.76;100.00;100756.15;1679631;85;21071;-73
2022/01/28 03:41:24;;;;;;;30.43;13.70;;;;;;;-1.82;100.00;100755.27;1687100;84;21054;-74
2022/01/28 03:43:58;;;;;;;34.63;15.05;;;;;;;-1.91;100.00;100757.69;1676748;84;21070;-74
2022/01/28 03:46:30;;;;;;;31.20;14.93;;;;;;;-1.83;100.00;100749.78;1671991;84;21076;-73
2022/01/28 03:48:56;;;;;;;32.17;14.50;;;;;;;-1.85;100.00;100748.91;1680690;84;21094;-73
2022/01/28 03:51:23;;;;;;;31.25;14.35;;;;;;;-1.83;100.00;100746.41;1687325;84;21043;-73
2022/01/28 03:53:50;;;;;;;31.02;14.70;;;;;;;-1.89;100.00;100739.63;1691595;84;21035;-73
2022/01/28 03:56:17;;;;;;;32.33;14.07;;;;;;;-1.84;100.00;100738.01;1686809;84;21048;-74
2022/01/28 03:58:44;;;;;;;33.33;13.90;;;;;;;-1.88;100.00;100748.06;1688274;84;21036;-73
2022/01/28 04:01:21;;;;;;;34.45;14.85;;;;;;;-1.88;100.00;100748.90;1686456;84;21532;-74
2022/01/28 04:03:48;;;;;;;32.40;14.20;;;;;;;-1.84;100.00;100736.75;1676163;84;21043;-73
2022/01/28 04:11:30;;;;;;;31.27;14.05;;;;;;;-1.86;100.00;100737.14;1676416;84;21050;-74
2022/01/28 04:14:14;;;;;;;28.45;13.20;;;;;;;-1.80;100.00;100736.37;1687423;84;21533;-74
2022/01/28 04:19:24;;;;;;;31.85;13.53;;;;;;;-1.79;100.00;100735.95;1693985;83;21130;-73
2022/01/28 04:21:51;;;;;;;30.40;13.90;;;;;;;-1.77;100.00;100735.13;1682982;84;21029;-74
2022/01/28 04:24:18;;;;;;;32.33;14.83;;;;;;;-1.83;100.00;100738.42;1671761;85;21055;-73
2022/01/28 04:26:45;;;;;;;31.42;14.75;;;;;;;-1.72;100.00;100734.77;1692946;84;21063;-74
2022/01/28 04:29:13;;;;;;;30.43;13.70;;;;;;;-1.67;100.00;100739.43;1692456;84;21063;-74
2022/01/28 04:31:42;;;;;;;31.82;14.63;;;;;;;-1.60;100.00;100734.05;1684623;84;21535;-74
2022/01/28 04:34:10;;;;;;;31.45;14.38;;;;;;;-1.53;100.00;100729.89;1689949;84;21015;-74
2022/01/28 04:36:47;;;;;;;32.67;15.10;;;;;;;-1.53;100.00;100725.67;1695224;84;21052;-73
2022/01/28 04:42:02;;;;;;;27.05;13.25;;;;;;;-1.49;100.00;100729.92;1682408;84;21104;-74
2022/01/28 04:44:30;;;;;;;32.40;14.38;;;;;;;-1.65;100.00;100735.23;1682816;84;21543;-74
2022/01/28 04:47:06;;;;;;;30.95;13.78;;;;;;;-1.55;100.00;100743.75;1686347;84;21044;-74
2022/01/28 04:49:27;;;;;;;31.95;14.20;;;;;;;-1.49;100.00;100738.75;1688522;85;21071;-73
2022/01/28 05:00:31;;;;;;;31.73;14.73;;;;;;;-1.50;100.00;100724.45;1681386;84;21570;-73
2022/01/28 05:02:32;;;;;;;28.47;13.10;;;;;;;-1.47;100.00;100723.20;1673963;84;21036;-73
2022/01/28 05:10:28;;;;;;;23.92;11.15;;;;;;;-1.52;100.00;100719.81;1677033;84;21072;-73
2022/01/28 05:13:14;;;;;;;26.15;11.55;;;;;;;-1.68;100.00;100717.98;1688871;84;21039;-73
2022/01/28 05:28:57;;;;;;;27.87;13.08;;;;;;;-1.55;100.00;100710.94;1699127;84;21036;-74
2022/01/28 05:31:24;;;;;;;29.50;13.35;;;;;;;-1.47;100.00;100701.75;1677349;84;21066;-74
2022/01/28 05:33:51;;;;;;;28.00;12.78;;;;;;;-1.52;100.00;100701.27;1675194;84;21071;-74
2022/01/28 05:36:18;;;;;;;30.68;14.00;;;;;;;-1.46;100.00;100697.14;1674139;84;21025;-74
2022/01/28 05:38:45;;;;;;;31.05;14.75;;;;;;;-1.43;100.00;100693.36;1688579;84;21548;-74
2022/01/28 05:41:12;;;;;;;29.57;14.05;;;;;;;-1.31;100.00;100682.52;1691820;84;21083;-75
2022/01/28 05:43:39;;;;;;;31.93;14.05;;;;;;;-1.22;100.00;100677.94;1692304;83;21080;-74
2022/01/28 05:46:07;;;;;;;34.60;14.25;;;;;;;-1.20;100.00;100705.31;1692003;83;21480;-74
2022/01/28 05:48:35;;;;;;;31.65;14.45;;;;;;;-1.17;100.00;100706.61;1694077;84;21106;-74
2022/01/28 05:51:02;;;;;;;32.25;14.18;;;;;;;-1.23;100.00;100710.36;1683166;83;21028;-74
2022/01/28 05:53:29;;;;;;;32.28;14.70;;;;;;;-1.24;100.00;100707.00;1691999;85;21044;-74
2022/01/28 05:55:56;;;;;;;30.62;14.20;;;;;;;-1.26;100.00;100708.66;1687507;84;21099;-75
2022/01/28 05:58:25;;;;;;;31.68;14.10;;;;;;;-1.23;100.00;100709.09;1688754;84;21084;-74
2022/01/28 06:00:52;;;;;;;34.03;15.18;;;;;;;-1.41;100.00;100715.69;1676606;84;21100;-74
2022/01/28 06:03:19;;;;;;;28.32;13.50;;;;;;;-1.37;100.00;100715.72;1684767;84;21103;-74
2022/01/28 06:05:48;;;;;;;31.77;14.70;;;;;;;-1.46;100.00;100713.55;1680717;84;21062;-75
2022/01/28 06:08:15;;;;;;;27.77;13.28;;;;;;;-1.32;100.00;100702.70;1682455;84;21088;-74
2022/01/28 06:10:42;;;;;;;30.65;14.28;;;;;;;-1.34;100.00;100698.05;1680339;84;21049;-74
2022/01/28 06:13:11;;;;;;;32.25;14.65;;;;;;;-1.33;100.00;100690.92;1685978;84;21044;-74
2022/01/28 06:15:43;;;;;;;32.67;15.32;;;;;;;-1.21;100.00;100691.84;1692397;84;21040;-74
2022/01/28 06:18:12;;;;;;;32.45;15.10;;;;;;;-1.12;100.00;100682.64;1688180;85;21041;-74
2022/01/28 06:20:39;;;;;;;33.55;15.38;;;;;;;-1.16;100.00;100683.45;1676387;84;21060;-74
2022/01/28 06:23:06;;;;;;;34.98;15.70;;;;;;;-1.10;100.00;100683.06;1681188;84;21559;-74
2022/01/28 06:25:34;;;;;;;36.08;16.67;;;;;;;-1.08;100.00;100683.08;1686232;84;21097;-74
2022/01/28 06:28:01;;;;;;;36.42;15.18;;;;;;;-1.03;100.00;100681.02;1680065;84;21524;-74
2022/01/28 06:30:28;;;;;;;32.98;16.25;;;;;;;-1.07;100.00;100675.95;1671801;84;21033;-74
2022/01/28 06:32:55;;;;;;;34.65;15.53;;;;;;;-1.01;100.00;100675.98;1693313;84;21544;-74
2022/01/28 06:35:22;;;;;;;30.92;15.20;;;;;;;-0.93;100.00;100662.11;1691522;85;21016;-74
2022/01/28 06:37:49;;;;;;;30.55;13.95;;;;;;;-0.96;100.00;100672.22;1695872;84;21087;-74
2022/01/28 06:40:17;;;;;;;29.07;14.30;;;;;;;-1.02;100.00;100671.75;1683646;84;21120;-74
2022/01/28 06:42:46;;;;;;;31.25;15.30;;;;;;;-0.91;100.00;100675.59;1679811;84;21083;-74
2022/01/28 06:45:13;;;;;;;26.10;12.82;;;;;;;-0.83;100.00;100668.50;1685132;84;21044;-74
2022/01/28 06:47:41;;;;;;;31.17;14.53;;;;;;;-0.88;100.00;100673.94;1682259;84;21112;-74
2022/01/28 06:50:10;;;;;;;25.97;12.40;;;;;;;-0.82;100.00;100664.28;1687041;84;21068;-74
2022/01/28 06:52:38;;;;;;;31.60;14.25;;;;;;;-0.85;100.00;100667.66;1693171;83;21528;-75
2022/01/28 06:55:06;;;;;;;29.70;13.35;;;;;;;-0.88;100.00;100678.99;1696919;83;21051;-74
2022/01/28 06:57:34;;;;;;;30.72;13.98;;;;;;;-0.92;100.00;100664.66;1692423;84;21492;-75
2022/01/28 07:00:03;;;;;;;31.62;14.95;;;;;;;-0.79;100.00;100658.00;1691644;84;21050;-74
2022/01/28 07:02:30;;;;;;;32.65;15.08;;;;;;;-0.72;100.00;100652.12;1678920;84;21061;-74
2022/01/28 07:04:57;;;;;;;32.42;15.13;;;;;;;-0.63;100.00;100657.23;1696509;84;21094;-74
2022/01/28 07:07:25;;;;;;;31.02;15.03;;;;;;;-0.56;100.00;100658.52;1682881;84;21572;-74
2022/01/28 07:09:53;;;;;;;29.65;13.32;;;;;;;-0.53;100.00;100661.03;1691954;84;21059;-74
2022/01/28 07:12:21;;;;;;;30.82;13.93;;;;;;;-0.52;100.00;100662.74;1691281;84;21675;-74
2022/01/28 07:14:49;;;;;;;28.47;13.35;;;;;;;-0.52;100.00;100669.06;1688391;84;21103;-74
2022/01/28 07:17:16;;;;;;;30.92;14.68;;;;;;;-0.48;100.00;100668.23;1675709;84;21589;-74
2022/01/28 07:19:44;;;;;;;31.20;14.90;;;;;;;-0.43;100.00;100664.02;1682575;85;21008;-74
2022/01/28 07:22:11;;;;;;;32.75;15.78;;;;;;;-0.35;100.00;100662.36;1688664;84;21040;-74
2022/01/28 07:24:38;;;;;;;27.50;13.40;;;;;;;-0.46;100.00;100661.07;1673494;84;21088;-72
2022/01/28 07:27:06;;;;;;;35.03;15.25;;;;;;;-0.39;100.00;100658.14;1693055;84;21100;-72
2022/01/28 07:29:33;;;;;;;29.75;13.80;;;;;;;-0.38;100.00;100657.73;1681120;84;21610;-72
2022/01/28 07:32:01;;;;;;;28.57;13.50;;;;;;;-0.36;100.00;100649.73;1691904;84;21228;-72
2022/01/28 07:34:28;;;;;;;29.77;14.45;;;;;;;-0.47;100.00;100656.00;1688782;84;21071;-71
2022/01/28 07:36:55;;;;;;;30.95;14.63;;;;;;;-0.51;100.00;100655.56;1700274;84;21043;-71
2022/01/28 07:39:22;;;;;;;29.35;14.03;;;;;;;-0.43;100.00;100650.11;1691253;84;21555;-72
2022/01/28 07:41:49;;;;;;;32.75;16.02;;;;;;;-0.31;100.00;100643.83;1686782;84;21555;-72
2022/01/28 07:44:16;;;;;;;30.35;14.43;;;;;;;-0.10;100.00;100635.86;1690791;84;21075;-73
2022/01/28 07:46:43;;;;;;;31.15;14.83;;;;;;;0.01;100.00;100630.40;1698538;84;21064;-72
2022/01/28 07:49:10;;;;;;;30.55;14.78;;;;;;;0.10;100.00;100638.41;1693833;84;21052;-71
2022/01/28 07:51:37;;;;;;;28.75;14.85;;;;;;;0.24;100.00;100633.37;1693462;84;21079;-72
2022/01/28 07:54:05;;;;;;;29.20;14.40;;;;;;;0.26;100.00;100627.45;1679619;84;21053;-72
2022/01/28 07:56:32;;;;;;;35.80;15.63;;;;;;;0.36;100.00;100630.83;1686602;84;21036;-71
2022/01/28 07:59:01;;;;;;;37.17;16.30;;;;;;;0.43;100.00;100632.93;1692020;84;21052;-72
2022/01/28 08:01:28;;;;;;;35.08;16.67;;;;;;;0.40;100.00;100629.98;1679411;84;21067;-71
2022/01/28 08:03:55;;;;;;;31.70;15.60;;;;;;;0.45;100.00;100624.52;1694700;84;21567;-71
2022/01/28 08:06:22;;;;;;;28.60;13.85;;;;;;;0.57;100.00;100624.93;1698628;84;21118;-71
2022/01/28 08:08:49;;;;;;;30.20;13.83;;;;;;;0.55;100.00;100630.42;1686777;84;21059;-72
2022/01/28 08:11:16;;;;;;;32.08;15.68;;;;;;;0.37;100.00;100625.77;1683540;84;21073;-71
2022/01/28 08:13:47;;;;;;;32.67;16.10;;;;;;;0.62;100.00;100620.69;1683849;85;21071;-67
2022/01/28 08:16:15;;;;;;;31.20;15.30;;;;;;;0.79;100.00;100616.44;1683702;84;21031;-68
2022/01/28 08:18:44;;;;;;;29.27;15.32;;;;;;;0.92;100.00;100610.91;1688974;83;21612;-67
2022/01/28 08:21:11;;;;;;;27.20;14.20;;;;;;;0.89;100.00;100613.87;1683837;84;21044;-67
2022/01/28 08:23:39;;;;;;;31.77;14.95;;;;;;;0.82;100.00;100614.31;1683085;84;21091;-67
2022/01/28 08:26:07;;;;;;;33.35;16.10;;;;;;;0.87;100.00;100611.33;1684768;84;21056;-67
2022/01/28 08:28:35;;;;;;;28.50;14.07;;;;;;;0.97;100.00;100607.95;1675930;84;21057;-68
2022/01/28 08:31:02;;;;;;;32.20;16.20;;;;;;;0.94;100.00;100604.14;1683690;84;21064;-70
2022/01/28 08:33:30;;;;;;;32.40;15.70;;;;;;;0.92;100.00;100594.87;1694672;84;21080;-70
2022/01/28 08:35:56;;;;;;;33.45;15.75;;;;;;;0.90;100.00;100585.16;1688435;84;21530;-69
2022/01/28 08:38:27;;;;;;;30.45;14.13;;;;;;;1.00;100.00;100583.84;1683688;84;22638;-70
2022/01/28 08:40:56;;;;;;;29.05;14.33;;;;;;;1.14;100.00;100585.50;1690723;83;21103;-70
2022/01/28 08:43:24;;;;;;;29.23;15.48;;;;;;;1.30;100.00;100582.04;1680466;84;21095;-69
2022/01/28 08:45:52;;;;;;;34.92;16.17;;;;;;;1.53;100.00;100580.64;1680465;84;21116;-70
2022/01/28 08:48:19;;;;;;;28.42;14.15;;;;;;;1.71;100.00;100573.34;1690220;83;21084;-70
2022/01/28 08:50:46;;;;;;;32.63;15.10;;;;;;;1.73;100.00;100565.29;1686707;84;21052;-69
2022/01/28 08:53:13;;;;;;;29.70;14.13;;;;;;;1.79;100.00;100558.91;1675145;84;21058;-67
2022/01/28 08:55:42;;;;;;;33.38;15.48;;;;;;;1.66;100.00;100554.75;1671378;85;21078;-67
2022/01/28 08:58:11;;;;;;;27.80;14.10;;;;;;;1.82;100.00;100555.92;1691905;84;21140;-67
2022/01/28 09:00:40;;;;;;;29.65;14.95;;;;;;;1.94;100.00;100549.48;1683451;84;21067;-67
2022/01/28 09:03:07;;;;;;;30.27;15.58;;;;;;;1.88;100.00;100544.02;1677181;84;21041;-68
2022/01/28 09:05:34;;;;;;;28.00;14.68;;;;;;;1.88;100.00;100544.45;1667421;85;21609;-68
2022/01/28 09:08:08;;;;;;;29.85;15.72;;;;;;;1.94;100.00;100535.09;1675098;84;21128;-67
2022/01/28 09:10:30;;;;;;;33.13;16.30;;;;;;;2.06;100.00;100543.03;1677542;84;21045;-68
2022/01/28 09:15:41;;;;;;;31.77;15.25;;;;;;;1.98;100.00;100521.95;1686672;84;21186;-67
2022/01/28 09:18:12;;;;;;;32.95;16.65;;;;;;;2.11;100.00;100510.84;1680158;84;21064;-67
2022/01/28 09:20:40;;;;;;;29.82;15.63;;;;;;;2.29;100.00;100506.42;1681953;84;21075;-67
2022/01/28 09:23:09;;;;;;;32.42;16.10;;;;;;;2.24;100.00;100510.72;1686523;84;21056;-68
2022/01/28 09:25:36;;;;;;;27.42;14.43;;;;;;;2.25;100.00;100503.50;1683803;84;21025;-68
2022/01/28 09:28:04;;;;;;;29.85;14.18;;;;;;;2.29;100.00;100503.48;1676841;84;21533;-68
2022/01/28 09:30:33;;;;;;;35.92;16.55;;;;;;;2.21;100.00;100492.55;1680540;84;21024;-68
2022/01/28 09:33:02;;;;;;;33.10;16.17;;;;;;;2.23;100.00;100488.70;1695456;84;21085;-68
2022/01/28 09:35:30;;;;;;;31.75;15.85;;;;;;;2.31;100.00;100481.84;1684471;84;21095;-68
2022/01/28 09:37:57;;;;;;;31.70;16.17;;;;;;;2.38;100.00;100484.31;1678632;84;21112;-69
2022/01/28 09:40:25;;;;;;;33.00;16.57;;;;;;;2.49;100.00;100489.27;1681278;84;21024;-68
2022/01/28 09:42:54;;;;;;;30.80;15.32;;;;;;;2.59;100.00;100478.13;1697739;84;21135;-68
2022/01/28 09:45:24;;;;;;;33.63;16.48;;;;;;;2.61;100.00;100473.04;1693215;84;21063;-68
2022/01/28 09:47:55;;;;;;;32.83;16.87;;;;;;;2.60;100.00;100477.73;1687358;84;21071;-69
2022/01/28 09:50:25;;;;;;;32.60;16.80;;;;;;;2.57;100.00;100477.31;1691600;83;21045;-68
2022/01/28 09:52:54;;;;;;;31.05;14.85;;;;;;;2.26;100.00;100464.56;1689265;84;21544;-68
2022/01/28 09:55:24;;;;;;;30.77;15.28;;;;;;;1.98;100.00;100452.97;1691460;85;21127;-69
2022/01/28 09:57:55;;;;;;;29.27;15.32;;;;;;;1.98;100.00;100452.97;1681849;85;21045;-68
2022/01/28 10:00:25;;;;;;;25.92;13.48;;;;;;;2.05;100.00;100452.91;1679569;84;21033;-68
2022/01/28 10:02:59;;;;;;;30.55;15.03;;;;;;;1.97;100.00;100453.00;1688754;84;21039;-69
2022/01/28 10:05:34;;;;;;;29.90;16.77;;;;;;;2.22;100.00;100450.22;1697129;84;21051;-68
2022/01/28 10:08:19;;;;;;;28.17;13.95;;;;;;;2.22;100.00;100450.22;1700241;84;21669;-68
2022/01/28 10:11:16;;;;;;;26.60;14.45;;;;;;;2.23;100.00;100434.10;1679305;84;21047;-69
2022/01/28 10:13:52;;;;;;;33.38;16.17;;;;;;;2.23;100.00;100434.10;1683222;84;21018;-69
2022/01/28 10:16:19;;;;;;;34.33;16.85;;;;;;;2.40;100.00;100425.88;1676852;84;21604;-67
2022/01/28 10:19:02;;;;;;;32.57;16.20;;;;;;;2.52;100.00;100429.53;1676932;84;21047;-67
2022/01/28 10:21:43;;;;;;;34.10;16.93;;;;;;;2.77;100.00;100423.70;1683907;84;21059;-67
2022/01/28 10:24:26;;;;;;;29.80;15.50;;;;;;;3.03;100.00;100419.13;1674335;84;21094;-67
2022/01/28 10:27:06;;;;;;;29.60;15.03;;;;;;;3.10;100.00;100406.72;1688419;84;21044;-67
2022/01/28 10:29:40;;;;;;;30.25;14.93;;;;;;;3.14;100.00;100409.63;1684339;84;21079;-68
2022/01/28 10:32:14;;;;;;;28.32;14.30;;;;;;;3.17;100.00;100404.50;1677214;84;21092;-68
2022/01/28 10:34:50;;;;;;;28.07;13.85;;;;;;;3.02;100.00;100401.73;1688557;84;21540;-68
2022/01/28 10:37:28;;;;;;;26.10;13.75;;;;;;;3.06;100.00;100398.72;1681266;84;21003;-68
2022/01/28 10:40:03;;;;;;;28.70;14.93;;;;;;;2.97;100.00;100399.27;1691968;84;21083;-68
2022/01/28 10:42:40;;;;;;;29.80;15.25;;;;;;;2.72;100.00;100397.95;1690560;84;21601;-68
2022/01/28 10:45:12;;;;;;;29.20;15.00;;;;;;;2.51;100.00;100395.24;1680657;84;21517;-68
2022/01/28 10:47:46;;;;;;;28.57;15.18;;;;;;;2.43;100.00;100386.88;1685331;84;21032;-68
2022/01/28 10:50:22;;;;;;;33.20;16.80;;;;;;;2.41;100.00;100384.35;1691705;84;21609;-67
2022/01/28 10:53:09;;;;;;;31.15;16.37;;;;;;;2.39;100.00;100385.66;1691486;84;21086;-68
2022/01/28 10:55:43;;;;;;;33.28;17.55;;;;;;;2.37;100.00;100366.20;1676649;83;21045;-68
2022/01/28 10:58:13;;;;;;;30.92;16.50;;;;;;;2.51;100.00;100363.05;1685345;84;21039;-68
2022/01/28 11:00:48;;;;;;;34.08;16.32;;;;;;;2.52;100.00;100348.66;1696880;84;21040;-68
2022/01/28 11:03:18;;;;;;;32.15;16.35;;;;;;;2.50;100.00;100341.05;1683667;85;21052;-68
2022/01/28 11:05:45;;;;;;;36.40;17.60;;;;;;;2.45;100.00;100338.99;1691778;84;21074;-68
2022/01/28 11:08:14;;;;;;;27.85;14.98;;;;;;;2.47;100.00;100333.89;1691827;85;21060;-68
2022/01/28 11:10:44;;;;;;;35.65;17.60;;;;;;;2.47;100.00;100333.89;1680363;84;21092;-68
2022/01/28 11:13:13;;;;;;;32.53;17.15;;;;;;;2.50;100.00;100324.54;1671455;84;21504;-67
2022/01/28 11:15:40;;;;;;;35.40;18.32;;;;;;;2.62;100.00;100320.99;1681101;83;21571;-68
2022/01/28 11:18:09;;;;;;;34.58;17.52;;;;;;;2.62;100.00;100320.99;1691596;84;21024;-68
2022/01/28 11:20:54;;;;;;;35.08;17.67;;;;;;;2.56;100.00;100314.73;1688905;84;21088;-67
2022/01/28 11:23:41;;;;;;;34.40;17.25;;;;;;;2.67;100.00;100303.95;1691239;84;21611;-67
2022/01/28 11:26:20;;;;;;;36.68;18.60;;;;;;;2.65;100.00;100308.22;1673702;84;21142;-68
2022/01/28 11:28:56;;;;;;;39.05;19.85;;;;;;;2.65;100.00;100308.22;1680763;84;21052;-67
2022/01/28 11:31:48;;;;;;;48.25;23.65;;;;;;;2.66;100.00;100298.48;1683247;84;21027;-67
2022/01/28 11:34:31;;;;;;;47.62;24.63;;;;;;;2.86;100.00;100290.55;1668980;84;21555;-66
2022/01/28 11:37:05;;;;;;;56.60;27.77;;;;;;;2.98;100.00;100289.08;1679011;84;21028;-66
2022/01/28 11:39:37;;;;;;;63.00;29.65;;;;;;;2.80;100.00;100289.38;1678308;84;21081;-67
2022/01/28 11:42:10;;;;;;;68.95;32.98;;;;;;;2.80;100.00;100289.38;1678299;85;21065;-67
2022/01/28 11:44:59;;;;;;;66.25;32.63;;;;;;;2.82;100.00;100286.38;1688333;84;21580;-66
2022/01/28 11:47:33;;;;;;;70.65;32.75;;;;;;;2.75;100.00;100274.62;1686072;84;21056;-67
2022/01/28 11:50:16;;;;;;;75.50;33.95;;;;;;;2.65;100.00;100275.63;1691793;84;21036;-66
2022/01/28 11:52:55;;;;;;;66.65;30.62;;;;;;;2.50;100.00;100270.35;1689706;84;21048;-66
2022/01/28 11:55:30;;;;;;;70.87;31.87;;;;;;;2.50;100.00;100270.35;1691679;84;21016;-66
2022/01/28 11:58:05;;;;;;;68.62;31.68;;;;;;;2.53;100.00;100269.85;1688433;84;21090;-67
2022/01/28 12:00:45;;;;;;;72.42;32.00;;;;;;;2.41;100.00;100272.57;1679572;84;21057;-66
2022/01/28 12:03:28;;;;;;;65.92;31.07;;;;;;;2.29;100.00;100252.02;1689786;84;21540;-66
2022/01/28 12:05:58;;;;;;;63.17;28.30;;;;;;;2.31;100.00;100256.65;1687661;84;22484;-66
2022/01/28 12:08:31;;;;;;;64.15;28.52;;;;;;;2.31;100.00;100256.65;1684678;84;21107;-66
2022/01/28 12:11:03;;;;;;;57.50;27.48;;;;;;;2.33;100.00;100256.60;1679040;85;21055;-66
2022/01/28 12:14:05;;;;;;;57.62;26.87;;;;;;;2.28;100.00;100250.33;1670792;84;21047;-66
2022/01/28 12:16:35;;;;;;;57.20;25.10;;;;;;;2.23;100.00;100242.36;1691662;84;21084;-66
2022/01/28 12:19:02;;;;;;;46.02;21.40;;;;;;;2.30;100.00;100254.13;1680957;84;21104;-66
2022/01/28 12:21:34;;;;;;;42.00;20.23;;;;;;;2.33;100.00;100255.33;1664053;84;21099;-66
2022/01/28 12:24:25;;;;;;;36.58;19.00;;;;;;;2.25;100.00;100252.06;1679070;84;21095;-67
2022/01/28 12:27:11;;;;;;;38.60;19.17;;;;;;;2.33;100.00;100246.45;1637254;85;21033;-66
2022/01/28 12:29:57;;;;;;;37.13;17.95;;;;;;;2.34;100.00;100242.62;1680469;84;21051;-66
2022/01/28 12:32:25;;;;;;;34.75;17.57;;;;;;;2.30;100.00;100248.61;1691776;84;21048;-66
2022/01/28 12:34:54;;;;;;;32.45;17.15;;;;;;;2.30;100.00;100248.61;1661368;84;21099;-66
2022/01/28 12:37:23;;;;;;;32.58;17.20;;;;;;;2.23;100.00;100244.89;1675276;84;21128;-66
2022/01/28 12:40:01;;;;;;;36.63;16.93;;;;;;;2.23;100.00;100244.89;1691849;84;21135;-66